Terminal Aerodrome Forecast
Issued by NWS

Home | Current Version | Previous Version | Text Only | Print | Product List | Glossary On
Versions: 1 2 3 4 5 6 7 8 9 10 11 12 13 14 15 16 17 18 19 20 21 22 23 24 25 26 27 28 29
000
FTAK31 PANC 300532
TAFAVD
TAF
PAVD 300532Z 3006/3106 00000KT P6SM -SHRA SCT025 OVC060
     FM301200 00000KT 6SM -SHRA BR SCT020 OVC035
     FM310200 00000KT P6SM SCT025 BKN060
      AMD LTD TO CLD VIS AND WIND=

USA.gov is the U.S. government's official web portal to all federal, state and local government web resources and services.